Terminal Aerodrome Forecast
Issued by NWS

Home | Current Version | Previous Version | Text Only | Print | Product List | Glossary On
Versions: 1 2 3 4 5 6 7 8 9 10 11 12 13 14 15 16
927
FTUS44 KCRP 301126
TAFALI
TAF
KALI 301126Z 3012/3112 02010KT P6SM SCT007 BKN015 OVC060
     FM301600 06007KT P6SM VCSH SCT025 BKN030 OVC040
      TEMPO 3018/3022 VRB15G25KT 5SM TSRA BKN025CB OVC035
     FM302200 09010KT P6SM VCTS SCT030CB BKN100
      TEMPO 3022/3024 VRB15G25KT 3SM TSRA BR OVC025CB
     FM310200 09004KT P6SM SCT025 BKN150
     FM310600 VRB03KT P6SM BKN020 OVC250
      TEMPO 3110/3112 5SM BR=

USA.gov is the U.S. government's official web portal to all federal, state and local government web resources and services.